sensor_id;sensor_type;location;lat;lon;timestamp;temperature;humidity
3713;DHT22;1872;51.406;6.856;2023-07-13T00:00:03;17.60;99.90
3713;DHT22;1872;51.406;6.856;2023-07-13T00:02:34;17.60;99.90
3713;DHT22;1872;51.406;6.856;2023-07-13T00:04:59;17.50;99.90
3713;DHT22;1872;51.406;6.856;2023-07-13T00:07:25;17.50;99.90
3713;DHT22;1872;51.406;6.856;2023-07-13T00:09:51;17.40;99.90
3713;DHT22;1872;51.406;6.856;2023-07-13T00:12:29;17.40;99.90
3713;DHT22;1872;51.406;6.856;2023-07-13T00:14:57;17.30;99.90
3713;DHT22;1872;51.406;6.856;2023-07-13T00:17:23;17.30;99.90
3713;DHT22;1872;51.406;6.856;2023-07-13T00:19:49;17.20;99.90
3713;DHT22;1872;51.406;6.856;2023-07-13T00:22:14;17.20;99.90
3713;DHT22;1872;51.406;6.856;2023-07-13T00:24:40;17.10;99.90
3713;DHT22;1872;51.406;6.856;2023-07-13T00:27:08;17.10;99.90
3713;DHT22;1872;51.406;6.856;2023-07-13T00:29:35;17.00;99.90
3713;DHT22;1872;51.406;6.856;2023-07-13T00:32:01;17.00;99.90
3713;DHT22;1872;51.406;6.856;2023-07-13T00:34:27;17.00;99.90
3713;DHT22;1872;51.406;6.856;2023-07-13T00:36:52;17.00;99.90
3713;DHT22;1872;51.406;6.856;2023-07-13T00:39:18;17.00;99.90
3713;DHT22;1872;51.406;6.856;2023-07-13T00:41:46;17.00;99.90
3713;DHT22;1872;51.406;6.856;2023-07-13T00:44:15;17.00;99.90
3713;DHT22;1872;51.406;6.856;2023-07-13T00:46:41;16.90;99.90
3713;DHT22;1872;51.406;6.856;2023-07-13T00:49:09;16.90;99.90
3713;DHT22;1872;51.406;6.856;2023-07-13T00:51:49;16.90;99.90
3713;DHT22;1872;51.406;6.856;2023-07-13T00:54:21;16.80;99.90
3713;DHT22;1872;51.406;6.856;2023-07-13T00:56:51;16.80;99.90
3713;DHT22;1872;51.406;6.856;2023-07-13T00:59:18;16.70;99.90
3713;DHT22;1872;51.406;6.856;2023-07-13T01:01:45;16.70;99.90
3713;DHT22;1872;51.406;6.856;2023-07-13T01:04:11;16.70;99.90
3713;DHT22;1872;51.406;6.856;2023-07-13T01:06:37;16.60;99.90
3713;DHT22;1872;51.406;6.856;2023-07-13T01:09:07;16.60;99.90
3713;DHT22;1872;51.406;6.856;2023-07-13T01:11:33;16.60;99.90
3713;DHT22;1872;51.406;6.856;2023-07-13T01:14:00;16.60;99.90
3713;DHT22;1872;51.406;6.856;2023-07-13T01:16:33;16.50;99.90
3713;DHT22;1872;51.406;6.856;2023-07-13T01:18:59;16.50;99.90
3713;DHT22;1872;51.406;6.856;2023-07-13T01:21:28;16.50;99.90
3713;DHT22;1872;51.406;6.856;2023-07-13T01:23:53;16.40;99.90
3713;DHT22;1872;51.406;6.856;2023-07-13T01:26:19;16.50;99.90
3713;DHT22;1872;51.406;6.856;2023-07-13T01:28:45;16.50;99.90
3713;DHT22;1872;51.406;6.856;2023-07-13T01:31:11;16.40;99.90
3713;DHT22;1872;51.406;6.856;2023-07-13T01:33:38;16.40;99.90
3713;DHT22;1872;51.406;6.856;2023-07-13T01:36:09;16.40;99.90
3713;DHT22;1872;51.406;6.856;2023-07-13T01:38:35;16.40;99.90
3713;DHT22;1872;51.406;6.856;2023-07-13T01:41:01;16.30;99.90
3713;DHT22;1872;51.406;6.856;2023-07-13T01:43:27;16.30;99.90
3713;DHT22;1872;51.406;6.856;2023-07-13T01:45:53;16.30;99.90
3713;DHT22;1872;51.406;6.856;2023-07-13T01:48:19;16.30;99.90
3713;DHT22;1872;51.406;6.856;2023-07-13T01:50:45;16.20;99.90
3713;DHT22;1872;51.406;6.856;2023-07-13T01:53:11;16.20;99.90
3713;DHT22;1872;51.406;6.856;2023-07-13T01:55:37;16.20;99.90
3713;DHT22;1872;51.406;6.856;2023-07-13T01:58:03;16.20;99.90
3713;DHT22;1872;51.406;6.856;2023-07-13T02:00:29;16.20;99.90
3713;DHT22;1872;51.406;6.856;2023-07-13T02:02:54;16.20;99.90
3713;DHT22;1872;51.406;6.856;2023-07-13T02:05:20;16.20;99.90
3713;DHT22;1872;51.406;6.856;2023-07-13T02:07:46;16.20;99.90
3713;DHT22;1872;51.406;6.856;2023-07-13T02:10:12;16.20;99.90
3713;DHT22;1872;51.406;6.856;2023-07-13T02:12:38;16.10;99.90
3713;DHT22;1872;51.406;6.856;2023-07-13T02:15:05;16.10;99.90
3713;DHT22;1872;51.406;6.856;2023-07-13T02:17:31;16.10;99.90
3713;DHT22;1872;51.406;6.856;2023-07-13T02:19:57;16.10;99.90
3713;DHT22;1872;51.406;6.856;2023-07-13T02:22:23;16.10;99.90
3713;DHT22;1872;51.406;6.856;2023-07-13T02:24:49;16.10;99.90
3713;DHT22;1872;51.406;6.856;2023-07-13T02:27:15;16.10;99.90
3713;DHT22;1872;51.406;6.856;2023-07-13T02:29:41;16.00;99.90
3713;DHT22;1872;51.406;6.856;2023-07-13T02:32:07;16.00;99.90
3713;DHT22;1872;51.406;6.856;2023-07-13T02:34:34;16.00;99.90
3713;DHT22;1872;51.406;6.856;2023-07-13T02:36:59;16.00;99.90
3713;DHT22;1872;51.406;6.856;2023-07-13T02:39:25;15.90;99.90
3713;DHT22;1872;51.406;6.856;2023-07-13T02:41:50;15.90;99.90
3713;DHT22;1872;51.406;6.856;2023-07-13T02:44:16;15.80;99.90
3713;DHT22;1872;51.406;6.856;2023-07-13T02:46:42;15.80;99.90
3713;DHT22;1872;51.406;6.856;2023-07-13T02:49:08;15.80;99.90
3713;DHT22;1872;51.406;6.856;2023-07-13T02:51:33;15.70;99.90
3713;DHT22;1872;51.406;6.856;2023-07-13T02:54:01;15.70;99.90
3713;DHT22;1872;51.406;6.856;2023-07-13T02:56:28;15.70;99.90
3713;DHT22;1872;51.406;6.856;2023-07-13T02:58:54;15.80;99.90
3713;DHT22;1872;51.406;6.856;2023-07-13T03:01:21;15.80;99.90
3713;DHT22;1872;51.406;6.856;2023-07-13T03:03:51;15.70;99.90
3713;DHT22;1872;51.406;6.856;2023-07-13T03:06:17;15.70;99.90
3713;DHT22;1872;51.406;6.856;2023-07-13T03:08:44;15.70;99.90
3713;DHT22;1872;51.406;6.856;2023-07-13T03:11:15;15.60;99.90
3713;DHT22;1872;51.406;6.856;2023-07-13T03:13:42;15.60;99.90
3713;DHT22;1872;51.406;6.856;2023-07-13T03:16:09;15.60;99.90
3713;DHT22;1872;51.406;6.856;2023-07-13T03:18:36;15.60;99.90
3713;DHT22;1872;51.406;6.856;2023-07-13T03:21:02;15.60;99.90
3713;DHT22;1872;51.406;6.856;2023-07-13T03:23:28;15.60;99.90
3713;DHT22;1872;51.406;6.856;2023-07-13T03:26:09;15.60;99.90
3713;DHT22;1872;51.406;6.856;2023-07-13T03:28:35;15.60;99.90
3713;DHT22;1872;51.406;6.856;2023-07-13T03:31:10;15.50;99.90
3713;DHT22;1872;51.406;6.856;2023-07-13T03:33:36;15.50;99.90
3713;DHT22;1872;51.406;6.856;2023-07-13T03:36:03;15.50;99.90
3713;DHT22;1872;51.406;6.856;2023-07-13T03:38:29;15.50;99.90
3713;DHT22;1872;51.406;6.856;2023-07-13T03:40:55;15.50;99.90
3713;DHT22;1872;51.406;6.856;2023-07-13T03:43:21;15.50;99.90
3713;DHT22;1872;51.406;6.856;2023-07-13T03:45:47;15.50;99.90
3713;DHT22;1872;51.406;6.856;2023-07-13T03:48:13;15.50;99.90
3713;DHT22;1872;51.406;6.856;2023-07-13T03:50:39;15.50;99.90
3713;DHT22;1872;51.406;6.856;2023-07-13T03:53:05;15.60;99.90
3713;DHT22;1872;51.406;6.856;2023-07-13T03:55:31;15.60;99.90
3713;DHT22;1872;51.406;6.856;2023-07-13T03:58:30;15.60;99.90
3713;DHT22;1872;51.406;6.856;2023-07-13T04:00:56;15.60;99.90
3713;DHT22;1872;51.406;6.856;2023-07-13T04:03:23;15.60;99.90
3713;DHT22;1872;51.406;6.856;2023-07-13T04:05:49;15.60;99.90
3713;DHT22;1872;51.406;6.856;2023-07-13T04:08:15;15.60;99.90
3713;DHT22;1872;51.406;6.856;2023-07-13T04:10:40;15.60;99.90
3713;DHT22;1872;51.406;6.856;2023-07-13T04:13:06;15.70;99.90
3713;DHT22;1872;51.406;6.856;2023-07-13T04:15:32;15.70;99.90
3713;DHT22;1872;51.406;6.856;2023-07-13T04:17:58;15.70;99.90
3713;DHT22;1872;51.406;6.856;2023-07-13T04:20:25;15.70;99.90
3713;DHT22;1872;51.406;6.856;2023-07-13T04:22:52;15.80;99.90
3713;DHT22;1872;51.406;6.856;2023-07-13T04:25:18;15.90;99.90
3713;DHT22;1872;51.406;6.856;2023-07-13T04:27:44;15.90;99.90
3713;DHT22;1872;51.406;6.856;2023-07-13T04:30:10;16.00;99.90
3713;DHT22;1872;51.406;6.856;2023-07-13T04:32:35;16.00;99.90
3713;DHT22;1872;51.406;6.856;2023-07-13T04:35:01;16.10;99.90
3713;DHT22;1872;51.406;6.856;2023-07-13T04:37:27;16.10;99.90
3713;DHT22;1872;51.406;6.856;2023-07-13T04:39:52;16.10;99.90
3713;DHT22;1872;51.406;6.856;2023-07-13T04:42:18;16.30;99.90
3713;DHT22;1872;51.406;6.856;2023-07-13T04:44:51;16.30;99.90
3713;DHT22;1872;51.406;6.856;2023-07-13T04:47:17;16.30;99.90
3713;DHT22;1872;51.406;6.856;2023-07-13T04:49:43;16.40;99.90
3713;DHT22;1872;51.406;6.856;2023-07-13T04:52:09;16.50;99.90
3713;DHT22;1872;51.406;6.856;2023-07-13T04:54:35;16.50;99.90
3713;DHT22;1872;51.406;6.856;2023-07-13T04:57:01;16.50;99.90
3713;DHT22;1872;51.406;6.856;2023-07-13T04:59:27;16.60;99.90
3713;DHT22;1872;51.406;6.856;2023-07-13T05:01:53;16.60;99.90
3713;DHT22;1872;51.406;6.856;2023-07-13T05:04:19;16.70;99.90
3713;DHT22;1872;51.406;6.856;2023-07-13T05:06:44;16.70;99.90
3713;DHT22;1872;51.406;6.856;2023-07-13T05:09:10;16.70;99.90
3713;DHT22;1872;51.406;6.856;2023-07-13T05:11:35;16.70;99.90
3713;DHT22;1872;51.406;6.856;2023-07-13T05:14:01;16.60;99.90
3713;DHT22;1872;51.406;6.856;2023-07-13T05:16:27;16.60;99.90
3713;DHT22;1872;51.406;6.856;2023-07-13T05:18:53;16.60;99.90
3713;DHT22;1872;51.406;6.856;2023-07-13T05:21:19;16.60;99.90
3713;DHT22;1872;51.406;6.856;2023-07-13T05:23:45;16.60;99.90
3713;DHT22;1872;51.406;6.856;2023-07-13T05:26:11;16.60;99.90
3713;DHT22;1872;51.406;6.856;2023-07-13T05:28:37;16.70;99.90
3713;DHT22;1872;51.406;6.856;2023-07-13T05:31:03;16.70;99.90
3713;DHT22;1872;51.406;6.856;2023-07-13T05:33:29;16.70;99.90
3713;DHT22;1872;51.406;6.856;2023-07-13T05:35:55;16.80;99.90
3713;DHT22;1872;51.406;6.856;2023-07-13T05:38:21;16.80;99.90
3713;DHT22;1872;51.406;6.856;2023-07-13T05:40:47;16.90;99.90
3713;DHT22;1872;51.406;6.856;2023-07-13T05:43:13;17.00;99.90
3713;DHT22;1872;51.406;6.856;2023-07-13T05:45:39;17.10;99.90
3713;DHT22;1872;51.406;6.856;2023-07-13T05:48:05;17.10;99.90
3713;DHT22;1872;51.406;6.856;2023-07-13T05:50:31;17.10;99.90
3713;DHT22;1872;51.406;6.856;2023-07-13T05:52:57;17.20;99.90
3713;DHT22;1872;51.406;6.856;2023-07-13T05:55:22;17.20;99.90
3713;DHT22;1872;51.406;6.856;2023-07-13T05:57:48;17.20;99.90
3713;DHT22;1872;51.406;6.856;2023-07-13T06:00:14;17.30;99.90
3713;DHT22;1872;51.406;6.856;2023-07-13T06:02:40;17.40;99.90
3713;DHT22;1872;51.406;6.856;2023-07-13T06:05:06;17.40;99.90
3713;DHT22;1872;51.406;6.856;2023-07-13T06:07:32;17.50;99.90
3713;DHT22;1872;51.406;6.856;2023-07-13T06:09:57;17.60;99.90
3713;DHT22;1872;51.406;6.856;2023-07-13T06:12:24;17.70;99.90
3713;DHT22;1872;51.406;6.856;2023-07-13T06:14:50;17.70;99.90
3713;DHT22;1872;51.406;6.856;2023-07-13T06:17:16;17.80;99.90
3713;DHT22;1872;51.406;6.856;2023-07-13T06:19:41;17.80;99.90
3713;DHT22;1872;51.406;6.856;2023-07-13T06:22:07;17.90;99.90
3713;DHT22;1872;51.406;6.856;2023-07-13T06:24:35;18.00;99.90
3713;DHT22;1872;51.406;6.856;2023-07-13T06:27:01;18.20;99.90
3713;DHT22;1872;51.406;6.856;2023-07-13T06:29:26;18.30;99.90
3713;DHT22;1872;51.406;6.856;2023-07-13T06:31:52;18.40;99.90
3713;DHT22;1872;51.406;6.856;2023-07-13T06:34:18;18.50;99.90
3713;DHT22;1872;51.406;6.856;2023-07-13T06:36:44;18.70;99.90
3713;DHT22;1872;51.406;6.856;2023-07-13T06:39:09;18.80;99.90
3713;DHT22;1872;51.406;6.856;2023-07-13T06:41:35;18.90;99.90
3713;DHT22;1872;51.406;6.856;2023-07-13T06:44:01;19.00;99.90
3713;DHT22;1872;51.406;6.856;2023-07-13T06:46:29;19.20;99.90
3713;DHT22;1872;51.406;6.856;2023-07-13T06:48:55;19.20;99.90
3713;DHT22;1872;51.406;6.856;2023-07-13T06:51:21;19.20;99.90
3713;DHT22;1872;51.406;6.856;2023-07-13T06:53:47;19.40;99.90
3713;DHT22;1872;51.406;6.856;2023-07-13T06:56:13;19.50;99.90
3713;DHT22;1872;51.406;6.856;2023-07-13T06:58:38;19.60;99.90
3713;DHT22;1872;51.406;6.856;2023-07-13T07:01:05;19.70;99.90
3713;DHT22;1872;51.406;6.856;2023-07-13T07:03:30;19.80;99.90
3713;DHT22;1872;51.406;6.856;2023-07-13T07:06:13;19.80;99.90
3713;DHT22;1872;51.406;6.856;2023-07-13T07:08:40;19.70;99.90
3713;DHT22;1872;51.406;6.856;2023-07-13T07:11:11;19.60;99.90
3713;DHT22;1872;51.406;6.856;2023-07-13T07:13:36;19.60;99.90
3713;DHT22;1872;51.406;6.856;2023-07-13T07:16:02;19.60;99.90
3713;DHT22;1872;51.406;6.856;2023-07-13T07:18:29;19.60;99.90
3713;DHT22;1872;51.406;6.856;2023-07-13T07:20:55;19.50;99.90
3713;DHT22;1872;51.406;6.856;2023-07-13T07:23:21;19.50;99.90
3713;DHT22;1872;51.406;6.856;2023-07-13T07:25:47;19.50;99.90
3713;DHT22;1872;51.406;6.856;2023-07-13T07:28:16;19.50;99.90
3713;DHT22;1872;51.406;6.856;2023-07-13T07:30:46;19.50;99.90
3713;DHT22;1872;51.406;6.856;2023-07-13T07:33:11;19.60;99.90
3713;DHT22;1872;51.406;6.856;2023-07-13T07:35:37;19.80;99.90
3713;DHT22;1872;51.406;6.856;2023-07-13T07:38:03;20.00;99.90
3713;DHT22;1872;51.406;6.856;2023-07-13T07:40:28;20.10;99.90
3713;DHT22;1872;51.406;6.856;2023-07-13T07:42:54;20.30;99.90
3713;DHT22;1872;51.406;6.856;2023-07-13T07:45:20;20.60;99.90
3713;DHT22;1872;51.406;6.856;2023-07-13T07:47:46;20.80;99.90
3713;DHT22;1872;51.406;6.856;2023-07-13T07:50:12;20.80;99.90
3713;DHT22;1872;51.406;6.856;2023-07-13T07:52:38;20.80;99.90
3713;DHT22;1872;51.406;6.856;2023-07-13T07:55:06;20.70;99.90
3713;DHT22;1872;51.406;6.856;2023-07-13T07:57:32;20.60;99.90
3713;DHT22;1872;51.406;6.856;2023-07-13T07:59:57;20.60;99.90
3713;DHT22;1872;51.406;6.856;2023-07-13T08:02:24;20.60;99.90
3713;DHT22;1872;51.406;6.856;2023-07-13T08:04:50;20.60;99.90
3713;DHT22;1872;51.406;6.856;2023-07-13T08:07:15;20.50;99.90
3713;DHT22;1872;51.406;6.856;2023-07-13T08:09:41;20.60;99.90
3713;DHT22;1872;51.406;6.856;2023-07-13T08:12:07;20.60;99.90
3713;DHT22;1872;51.406;6.856;2023-07-13T08:14:33;20.50;99.90
3713;DHT22;1872;51.406;6.856;2023-07-13T08:16:58;20.60;99.90
3713;DHT22;1872;51.406;6.856;2023-07-13T08:19:24;20.90;99.90
3713;DHT22;1872;51.406;6.856;2023-07-13T08:21:50;21.10;99.90
3713;DHT22;1872;51.406;6.856;2023-07-13T08:24:15;21.40;99.90
3713;DHT22;1872;51.406;6.856;2023-07-13T08:26:44;21.90;99.90
3713;DHT22;1872;51.406;6.856;2023-07-13T08:29:09;22.40;99.90
3713;DHT22;1872;51.406;6.856;2023-07-13T08:31:35;22.90;99.90
3713;DHT22;1872;51.406;6.856;2023-07-13T08:34:01;23.00;99.90
3713;DHT22;1872;51.406;6.856;2023-07-13T08:36:26;23.10;99.90
3713;DHT22;1872;51.406;6.856;2023-07-13T08:38:53;23.10;99.90
3713;DHT22;1872;51.406;6.856;2023-07-13T08:41:19;23.20;99.90
3713;DHT22;1872;51.406;6.856;2023-07-13T08:43:49;23.20;99.90
3713;DHT22;1872;51.406;6.856;2023-07-13T08:46:20;23.30;99.90
3713;DHT22;1872;51.406;6.856;2023-07-13T08:48:52;23.20;99.90
3713;DHT22;1872;51.406;6.856;2023-07-13T08:53:48;23.00;99.90
3713;DHT22;1872;51.406;6.856;2023-07-13T08:56:23;23.10;99.90
3713;DHT22;1872;51.406;6.856;2023-07-13T08:58:54;23.10;99.90
3713;DHT22;1872;51.406;6.856;2023-07-13T09:01:40;23.10;99.90
3713;DHT22;1872;51.406;6.856;2023-07-13T09:04:19;23.00;99.90
3713;DHT22;1872;51.406;6.856;2023-07-13T09:15:43;23.60;99.90
3713;DHT22;1872;51.406;6.856;2023-07-13T09:20:47;23.60;99.90
3713;DHT22;1872;51.406;6.856;2023-07-13T09:23:20;23.60;99.90
3713;DHT22;1872;51.406;6.856;2023-07-13T09:25:48;23.40;99.90
3713;DHT22;1872;51.406;6.856;2023-07-13T09:28:28;23.40;99.90
3713;DHT22;1872;51.406;6.856;2023-07-13T09:31:03;23.30;99.90
3713;DHT22;1872;51.406;6.856;2023-07-13T09:33:30;23.10;99.90
3713;DHT22;1872;51.406;6.856;2023-07-13T09:36:00;23.00;99.90
3713;DHT22;1872;51.406;6.856;2023-07-13T09:38:28;22.90;99.90
3713;DHT22;1872;51.406;6.856;2023-07-13T09:41:13;22.90;99.90
3713;DHT22;1872;51.406;6.856;2023-07-13T09:44:10;22.90;99.90
3713;DHT22;1872;51.406;6.856;2023-07-13T09:46:38;22.80;99.90
3713;DHT22;1872;51.406;6.856;2023-07-13T09:49:03;23.00;99.90
3713;DHT22;1872;51.406;6.856;2023-07-13T09:51:29;23.00;99.90
3713;DHT22;1872;51.406;6.856;2023-07-13T09:53:55;23.10;99.90
3713;DHT22;1872;51.406;6.856;2023-07-13T09:56:21;23.10;99.90
3713;DHT22;1872;51.406;6.856;2023-07-13T09:58:48;23.30;99.90
3713;DHT22;1872;51.406;6.856;2023-07-13T10:01:13;23.50;99.90
3713;DHT22;1872;51.406;6.856;2023-07-13T10:03:39;23.60;99.90
3713;DHT22;1872;51.406;6.856;2023-07-13T10:06:18;23.60;99.90
3713;DHT22;1872;51.406;6.856;2023-07-13T10:08:46;23.50;99.90
3713;DHT22;1872;51.406;6.856;2023-07-13T10:11:20;23.30;99.90
3713;DHT22;1872;51.406;6.856;2023-07-13T10:13:58;23.00;99.90
3713;DHT22;1872;51.406;6.856;2023-07-13T10:16:35;23.10;99.90
3713;DHT22;1872;51.406;6.856;2023-07-13T10:24:20;23.20;99.90
3713;DHT22;1872;51.406;6.856;2023-07-13T10:26:52;23.20;99.90
3713;DHT22;1872;51.406;6.856;2023-07-13T10:29:20;23.20;99.90
3713;DHT22;1872;51.406;6.856;2023-07-13T10:31:48;23.10;99.90
3713;DHT22;1872;51.406;6.856;2023-07-13T10:34:14;23.00;99.90
3713;DHT22;1872;51.406;6.856;2023-07-13T10:36:45;22.90;99.90
3713;DHT22;1872;51.406;6.856;2023-07-13T10:39:20;22.80;99.90
3713;DHT22;1872;51.406;6.856;2023-07-13T10:41:53;22.70;99.90
3713;DHT22;1872;51.406;6.856;2023-07-13T10:44:28;22.60;99.90
3713;DHT22;1872;51.406;6.856;2023-07-13T10:47:15;22.50;99.90
3713;DHT22;1872;51.406;6.856;2023-07-13T10:49:44;22.60;99.90
3713;DHT22;1872;51.406;6.856;2023-07-13T10:55:34;22.70;99.90
3713;DHT22;1872;51.406;6.856;2023-07-13T11:01:14;22.90;99.90
3713;DHT22;1872;51.406;6.856;2023-07-13T11:04:00;23.00;99.90
3713;DHT22;1872;51.406;6.856;2023-07-13T11:09:40;23.00;99.90
3713;DHT22;1872;51.406;6.856;2023-07-13T11:12:27;22.90;99.90
3713;DHT22;1872;51.406;6.856;2023-07-13T11:17:49;23.00;99.90
3713;DHT22;1872;51.406;6.856;2023-07-13T11:22:52;23.20;99.90
3713;DHT22;1872;51.406;6.856;2023-07-13T11:25:25;23.30;99.90
3713;DHT22;1872;51.406;6.856;2023-07-13T11:28:13;23.30;99.90
3713;DHT22;1872;51.406;6.856;2023-07-13T11:30:50;23.10;99.90
3713;DHT22;1872;51.406;6.856;2023-07-13T11:33:29;23.20;99.90
3713;DHT22;1872;51.406;6.856;2023-07-13T11:38:38;23.40;99.90
3713;DHT22;1872;51.406;6.856;2023-07-13T11:41:21;23.40;99.90
3713;DHT22;1872;51.406;6.856;2023-07-13T11:43:53;23.50;99.90
3713;DHT22;1872;51.406;6.856;2023-07-13T11:46:22;23.40;99.70
3713;DHT22;1872;51.406;6.856;2023-07-13T11:48:48;23.40;99.60
3713;DHT22;1872;51.406;6.856;2023-07-13T11:51:26;23.40;99.70
3713;DHT22;1872;51.406;6.856;2023-07-13T11:53:54;23.50;99.60
3713;DHT22;1872;51.406;6.856;2023-07-13T11:56:22;23.60;99.40
3713;DHT22;1872;51.406;6.856;2023-07-13T11:58:51;23.60;99.00
3713;DHT22;1872;51.406;6.856;2023-07-13T12:01:30;23.70;98.60
3713;DHT22;1872;51.406;6.856;2023-07-13T12:04:02;23.70;98.40
3713;DHT22;1872;51.406;6.856;2023-07-13T12:06:32;23.70;98.50
3713;DHT22;1872;51.406;6.856;2023-07-13T12:09:03;23.80;98.20
3713;DHT22;1872;51.406;6.856;2023-07-13T12:11:30;23.80;97.80
3713;DHT22;1872;51.406;6.856;2023-07-13T12:14:00;23.80;97.70
3713;DHT22;1872;51.406;6.856;2023-07-13T12:16:29;23.80;97.60
3713;DHT22;1872;51.406;6.856;2023-07-13T12:19:00;23.80;97.50
3713;DHT22;1872;51.406;6.856;2023-07-13T12:21:38;23.80;97.30
3713;DHT22;1872;51.406;6.856;2023-07-13T12:24:14;23.70;97.10
3713;DHT22;1872;51.406;6.856;2023-07-13T12:26:40;23.60;97.20
3713;DHT22;1872;51.406;6.856;2023-07-13T12:29:07;23.60;97.10
3713;DHT22;1872;51.406;6.856;2023-07-13T12:31:44;23.50;97.10
3713;DHT22;1872;51.406;6.856;2023-07-13T12:34:22;23.50;96.90
3713;DHT22;1872;51.406;6.856;2023-07-13T12:36:51;23.50;97.00
3713;DHT22;1872;51.406;6.856;2023-07-13T12:41:44;23.50;96.80
3713;DHT22;1872;51.406;6.856;2023-07-13T12:44:15;23.40;96.30
3713;DHT22;1872;51.406;6.856;2023-07-13T12:46:53;23.40;96.20
3713;DHT22;1872;51.406;6.856;2023-07-13T12:49:24;23.30;96.30
3713;DHT22;1872;51.406;6.856;2023-07-13T12:51:50;23.20;96.30
3713;DHT22;1872;51.406;6.856;2023-07-13T12:54:18;23.10;96.80
3713;DHT22;1872;51.406;6.856;2023-07-13T12:56:45;23.00;96.60
3713;DHT22;1872;51.406;6.856;2023-07-13T12:59:18;22.90;96.40
3713;DHT22;1872;51.406;6.856;2023-07-13T13:01:46;22.80;96.30
3713;DHT22;1872;51.406;6.856;2023-07-13T13:04:13;22.70;96.50
3713;DHT22;1872;51.406;6.856;2023-07-13T13:06:39;22.60;96.40
3713;DHT22;1872;51.406;6.856;2023-07-13T13:09:12;22.50;96.40
3713;DHT22;1872;51.406;6.856;2023-07-13T13:11:39;22.50;96.50
3713;DHT22;1872;51.406;6.856;2023-07-13T13:14:05;22.40;96.70
3713;DHT22;1872;51.406;6.856;2023-07-13T13:16:44;22.30;97.00
3713;DHT22;1872;51.406;6.856;2023-07-13T13:19:17;22.20;97.60
3713;DHT22;1872;51.406;6.856;2023-07-13T13:21:44;22.10;98.10
3713;DHT22;1872;51.406;6.856;2023-07-13T13:24:16;22.10;98.30
3713;DHT22;1872;51.406;6.856;2023-07-13T13:26:43;22.20;98.60
3713;DHT22;1872;51.406;6.856;2023-07-13T13:29:15;22.30;98.80
3713;DHT22;1872;51.406;6.856;2023-07-13T13:31:42;22.50;99.10
3713;DHT22;1872;51.406;6.856;2023-07-13T13:34:10;22.60;99.00
3713;DHT22;1872;51.406;6.856;2023-07-13T13:36:36;22.70;98.90
3713;DHT22;1872;51.406;6.856;2023-07-13T13:39:02;22.90;98.70
3713;DHT22;1872;51.406;6.856;2023-07-13T13:41:28;23.00;98.40
3713;DHT22;1872;51.406;6.856;2023-07-13T13:43:53;23.00;98.00
3713;DHT22;1872;51.406;6.856;2023-07-13T13:46:21;23.00;97.70
3713;DHT22;1872;51.406;6.856;2023-07-13T13:48:48;23.00;97.50
3713;DHT22;1872;51.406;6.856;2023-07-13T13:51:24;22.90;97.50
3713;DHT22;1872;51.406;6.856;2023-07-13T13:53:50;22.90;98.00
3713;DHT22;1872;51.406;6.856;2023-07-13T13:56:18;22.90;97.70
3713;DHT22;1872;51.406;6.856;2023-07-13T13:58:43;22.90;97.50
3713;DHT22;1872;51.406;6.856;2023-07-13T14:01:17;22.90;97.40
3713;DHT22;1872;51.406;6.856;2023-07-13T14:03:45;22.80;97.50
3713;DHT22;1872;51.406;6.856;2023-07-13T14:06:17;22.80;97.90
3713;DHT22;1872;51.406;6.856;2023-07-13T14:08:42;22.70;98.10
3713;DHT22;1872;51.406;6.856;2023-07-13T14:11:14;22.70;98.30
3713;DHT22;1872;51.406;6.856;2023-07-13T14:13:53;22.70;98.80
3713;DHT22;1872;51.406;6.856;2023-07-13T14:16:22;22.70;98.70
3713;DHT22;1872;51.406;6.856;2023-07-13T14:18:49;22.80;98.40
3713;DHT22;1872;51.406;6.856;2023-07-13T14:21:17;22.90;98.20
3713;DHT22;1872;51.406;6.856;2023-07-13T14:23:44;22.90;98.20
3713;DHT22;1872;51.406;6.856;2023-07-13T14:26:13;22.90;98.50
3713;DHT22;1872;51.406;6.856;2023-07-13T14:28:43;22.70;98.70
3713;DHT22;1872;51.406;6.856;2023-07-13T14:31:10;22.70;99.00
3713;DHT22;1872;51.406;6.856;2023-07-13T14:33:36;22.60;99.20
3713;DHT22;1872;51.406;6.856;2023-07-13T14:36:03;22.50;99.40
3713;DHT22;1872;51.406;6.856;2023-07-13T14:38:39;22.40;99.60
3713;DHT22;1872;51.406;6.856;2023-07-13T14:41:04;22.40;99.70
3713;DHT22;1872;51.406;6.856;2023-07-13T14:43:30;22.30;99.80
3713;DHT22;1872;51.406;6.856;2023-07-13T14:45:56;22.20;99.90
3713;DHT22;1872;51.406;6.856;2023-07-13T14:48:23;22.20;99.90
3713;DHT22;1872;51.406;6.856;2023-07-13T14:50:57;22.20;99.90
3713;DHT22;1872;51.406;6.856;2023-07-13T14:53:25;22.20;99.90
3713;DHT22;1872;51.406;6.856;2023-07-13T14:55:53;22.20;99.90
3713;DHT22;1872;51.406;6.856;2023-07-13T14:58:19;22.10;99.90
3713;DHT22;1872;51.406;6.856;2023-07-13T15:00:45;22.10;99.90
3713;DHT22;1872;51.406;6.856;2023-07-13T15:03:22;22.10;99.90
3713;DHT22;1872;51.406;6.856;2023-07-13T15:05:48;22.10;99.90
3713;DHT22;1872;51.406;6.856;2023-07-13T15:08:15;22.10;99.90
3713;DHT22;1872;51.406;6.856;2023-07-13T15:10:41;22.00;99.90
3713;DHT22;1872;51.406;6.856;2023-07-13T15:13:18;22.00;99.90
3713;DHT22;1872;51.406;6.856;2023-07-13T15:15:47;22.00;99.90
3713;DHT22;1872;51.406;6.856;2023-07-13T15:18:15;22.00;99.90
3713;DHT22;1872;51.406;6.856;2023-07-13T15:20:44;21.90;99.90
3713;DHT22;1872;51.406;6.856;2023-07-13T15:23:14;21.90;99.90
3713;DHT22;1872;51.406;6.856;2023-07-13T15:25:42;21.80;99.90
3713;DHT22;1872;51.406;6.856;2023-07-13T15:28:09;21.70;99.90
3713;DHT22;1872;51.406;6.856;2023-07-13T15:30:46;21.60;99.90
3713;DHT22;1872;51.406;6.856;2023-07-13T15:33:29;21.60;99.90
3713;DHT22;1872;51.406;6.856;2023-07-13T15:35:55;21.50;99.90
3713;DHT22;1872;51.406;6.856;2023-07-13T15:38:33;21.50;99.90
3713;DHT22;1872;51.406;6.856;2023-07-13T15:41:22;21.40;99.90
3713;DHT22;1872;51.406;6.856;2023-07-13T15:43:50;21.40;99.90
3713;DHT22;1872;51.406;6.856;2023-07-13T15:46:20;21.40;99.90
3713;DHT22;1872;51.406;6.856;2023-07-13T15:48:48;21.30;99.90
3713;DHT22;1872;51.406;6.856;2023-07-13T15:51:26;21.30;99.90
3713;DHT22;1872;51.406;6.856;2023-07-13T15:53:58;21.20;99.60
3713;DHT22;1872;51.406;6.856;2023-07-13T15:56:26;21.20;99.40
3713;DHT22;1872;51.406;6.856;2023-07-13T15:58:53;21.20;99.20
3713;DHT22;1872;51.406;6.856;2023-07-13T16:01:20;21.20;99.20
3713;DHT22;1872;51.406;6.856;2023-07-13T16:03:46;21.20;99.10
3713;DHT22;1872;51.406;6.856;2023-07-13T16:06:22;21.20;99.10
3713;DHT22;1872;51.406;6.856;2023-07-13T16:08:49;21.20;99.10
3713;DHT22;1872;51.406;6.856;2023-07-13T16:11:24;21.20;99.20
3713;DHT22;1872;51.406;6.856;2023-07-13T16:13:51;21.20;99.20
3713;DHT22;1872;51.406;6.856;2023-07-13T16:16:28;21.20;99.10
3713;DHT22;1872;51.406;6.856;2023-07-13T16:18:55;21.20;99.20
3713;DHT22;1872;51.406;6.856;2023-07-13T16:21:23;21.20;99.30
3713;DHT22;1872;51.406;6.856;2023-07-13T16:23:51;21.20;99.30
3713;DHT22;1872;51.406;6.856;2023-07-13T16:26:33;21.30;99.30
3713;DHT22;1872;51.406;6.856;2023-07-13T16:29:20;21.20;99.30
3713;DHT22;1872;51.406;6.856;2023-07-13T16:32:05;21.30;99.30
3713;DHT22;1872;51.406;6.856;2023-07-13T16:34:34;21.30;99.40
3713;DHT22;1872;51.406;6.856;2023-07-13T16:37:10;21.40;99.50
3713;DHT22;1872;51.406;6.856;2023-07-13T16:39:39;21.40;99.50
3713;DHT22;1872;51.406;6.856;2023-07-13T16:42:09;21.30;99.30
3713;DHT22;1872;51.406;6.856;2023-07-13T16:44:37;21.30;99.40
3713;DHT22;1872;51.406;6.856;2023-07-13T16:47:08;21.20;99.30
3713;DHT22;1872;51.406;6.856;2023-07-13T16:49:37;21.20;99.20